Time;durP1;ratioP1;P1;durP2;ratioP2;P2;SDS_P1;SDS_P2;PMS_P1;PMS_P2;Temp;Humidity;BMP_temperature;BMP_pressure;BME280_temperature;BME280_humidity;BME280_pressure;Samples;Min_cycle;Max_cycle;Signal;HPM_P1;HPM_P2
2021/12/30 00:00:11;;;;;;;56.28;12.50;;;;;;;8.43;100.00;100908.88;1034744;28;20280;-76
2021/12/30 00:00:47;;;;;;;52.88;12.35;;;;;;;8.42;100.00;100907.25;1034930;28;20343;-74
2021/12/30 00:01:21;;;;;;;50.33;11.00;;;;;;;8.42;100.00;100904.59;1034820;28;20281;-74
2021/12/30 00:01:54;;;;;;;54.92;11.38;;;;;;;8.43;100.00;100908.88;1031358;28;20281;-75
2021/12/30 00:02:29;;;;;;;49.58;10.65;;;;;;;8.44;100.00;100911.31;1030940;28;20367;-75
2021/12/30 00:03:01;;;;;;;60.65;12.02;;;;;;;8.44;100.00;100905.19;1030756;28;20309;-75
2021/12/30 00:03:33;;;;;;;49.97;11.73;;;;;;;8.47;100.00;100904.78;1032055;28;20747;-74
2021/12/30 00:04:04;;;;;;;55.40;10.35;;;;;;;8.46;100.00;100903.97;1035812;28;20287;-75
2021/12/30 00:04:36;;;;;;;61.45;10.73;;;;;;;8.50;100.00;100904.41;1039340;28;20272;-78
2021/12/30 00:05:08;;;;;;;59.58;12.90;;;;;;;8.48;100.00;100904.59;1039690;28;20414;-79
2021/12/30 00:05:41;;;;;;;50.20;10.95;;;;;;;8.47;100.00;100902.13;1039961;28;20276;-78
2021/12/30 00:06:13;;;;;;;51.70;11.20;;;;;;;8.49;100.00;100900.09;1039641;28;20314;-78
2021/12/30 00:06:44;;;;;;;54.05;11.23;;;;;;;8.52;100.00;100910.34;1039353;28;20855;-78
2021/12/30 00:07:16;;;;;;;60.80;12.30;;;;;;;8.48;100.00;100906.44;1039874;28;20284;-79
2021/12/30 00:07:47;;;;;;;56.70;11.57;;;;;;;8.49;100.00;100906.25;1039689;28;20763;-78
2021/12/30 00:08:20;;;;;;;49.45;10.60;;;;;;;8.49;100.00;100908.06;1039538;28;20292;-78
2021/12/30 00:08:53;;;;;;;48.58;10.90;;;;;;;8.50;100.00;100909.72;1039987;28;20287;-78
2021/12/30 00:09:28;;;;;;;53.55;11.45;;;;;;;8.53;100.00;100914.63;1037738;28;20287;-78
2021/12/30 00:10:00;;;;;;;54.50;11.77;;;;;;;8.47;100.00;100910.91;1031951;28;20649;-78
2021/12/30 00:10:34;;;;;;;56.88;10.57;;;;;;;8.48;100.00;100906.44;1032122;28;20339;-78
2021/12/30 00:11:06;;;;;;;59.72;11.52;;;;;;;8.44;100.00;100911.31;1033710;28;20618;-78
2021/12/30 00:11:38;;;;;;;46.63;10.27;;;;;;;8.42;100.00;100907.25;1032991;28;20285;-78
2021/12/30 00:12:10;;;;;;;57.33;11.82;;;;;;;8.43;100.00;100900.91;1027931;28;20282;-78
2021/12/30 00:12:44;;;;;;;55.92;11.18;;;;;;;8.43;100.00;100906.22;1027786;28;20641;-78
2021/12/30 00:13:16;;;;;;;51.83;11.05;;;;;;;8.41;100.00;100905.59;1030292;28;20274;-79
2021/12/30 00:13:48;;;;;;;58.17;10.93;;;;;;;8.44;100.00;100895.41;1030563;28;20294;-78
2021/12/30 00:14:20;;;;;;;55.65;13.70;;;;;;;8.40;100.00;100896.81;1035489;28;20353;-78
2021/12/30 00:14:51;;;;;;;45.17;9.13;;;;;;;8.32;100.00;100902.28;1028230;28;20296;-78
2021/12/30 00:15:24;;;;;;;40.97;9.77;;;;;;;8.30;100.00;100896.38;1030551;28;20280;-78
2021/12/30 00:15:56;;;;;;;46.10;11.20;;;;;;;8.28;100.00;100895.75;1031711;28;20281;-78
2021/12/30 00:16:27;;;;;;;51.15;11.20;;;;;;;8.29;100.00;100897.38;1036742;28;20783;-78
2021/12/30 00:16:59;;;;;;;51.80;10.35;;;;;;;8.33;100.00;100896.81;1040327;28;20366;-78
2021/12/30 00:17:30;;;;;;;43.13;10.10;;;;;;;8.41;100.00;100897.63;1040504;28;20288;-78
2021/12/30 00:18:03;;;;;;;62.40;11.43;;;;;;;8.34;100.00;100905.59;1038410;28;20268;-78
2021/12/30 00:18:35;;;;;;;50.22;11.05;;;;;;;8.35;100.00;100905.38;1035678;28;20295;-75
2021/12/30 00:19:06;;;;;;;45.05;10.57;;;;;;;8.31;100.00;100901.47;1035367;28;20284;-75
2021/12/30 00:19:38;;;;;;;42.42;10.60;;;;;;;8.30;100.00;100910.44;1038209;28;20272;-75
2021/12/30 00:20:10;;;;;;;48.15;10.27;;;;;;;8.26;100.00;100917.19;1039211;28;20647;-75
2021/12/30 00:20:42;;;;;;;60.33;10.57;;;;;;;8.24;100.00;100910.44;1039750;28;20282;-75
2021/12/30 00:21:14;;;;;;;46.90;10.43;;;;;;;8.24;100.00;100911.25;1040090;28;20363;-75
2021/12/30 00:21:45;;;;;;;39.72;10.13;;;;;;;8.27;100.00;100916.16;1039490;28;20307;-76
2021/12/30 00:22:17;;;;;;;46.45;9.50;;;;;;;8.23;100.00;100914.09;1038954;28;20664;-75
2021/12/30 00:22:49;;;;;;;58.20;11.38;;;;;;;8.24;100.00;100910.44;1033420;28;20641;-75
2021/12/30 00:23:20;;;;;;;48.20;11.32;;;;;;;8.21;100.00;100916.94;1031296;28;20288;-75
2021/12/30 00:23:52;;;;;;;46.03;10.77;;;;;;;8.17;100.00;100910.38;1039354;28;20929;-75
2021/12/30 00:24:23;;;;;;;49.92;10.27;;;;;;;8.17;100.00;100917.53;1037329;28;20793;-75
2021/12/30 00:24:56;;;;;;;41.78;10.25;;;;;;;8.16;100.00;100916.72;1036296;28;20273;-74
2021/12/30 00:25:29;;;;;;;52.08;11.00;;;;;;;8.16;100.00;100923.84;1038927;28;20280;-75
2021/12/30 00:26:00;;;;;;;45.53;11.23;;;;;;;8.13;100.00;100925.06;1031694;28;20304;-75
2021/12/30 00:26:32;;;;;;;38.88;10.50;;;;;;;8.07;100.00;100926.69;1029174;28;20611;-75
2021/12/30 00:27:04;;;;;;;45.92;11.65;;;;;;;8.08;100.00;100927.50;1031996;28;20677;-75
2021/12/30 00:27:35;;;;;;;53.85;11.68;;;;;;;8.06;100.00;100934.84;1029680;28;20288;-75
2021/12/30 00:28:21;;;;;;;61.03;13.07;;;;;;;8.05;100.00;100931.38;1031729;28;20273;-75
2021/12/30 00:28:53;;;;;;;47.88;10.60;;;;;;;8.01;100.00;100931.97;1027265;28;20286;-75
2021/12/30 00:29:25;;;;;;;47.70;9.85;;;;;;;7.97;100.00;100928.91;1026225;28;20767;-74
2021/12/30 00:29:56;;;;;;;43.67;10.50;;;;;;;7.96;100.00;100929.09;1027381;28;20293;-74
2021/12/30 00:30:28;;;;;;;51.25;11.27;;;;;;;7.99;100.00;100920.75;1027089;28;20290;-75
2021/12/30 00:31:00;;;;;;;45.83;11.25;;;;;;;7.97;100.00;100925.44;1030363;28;20667;-75
2021/12/30 00:31:31;;;;;;;49.13;10.55;;;;;;;7.99;100.00;100928.69;1035507;28;20281;-78
2021/12/30 00:32:04;;;;;;;55.63;12.07;;;;;;;7.98;100.00;100921.75;1034691;28;20288;-78
2021/12/30 00:32:36;;;;;;;44.05;10.07;;;;;;;8.02;100.00;100923.00;1028066;28;20290;-78
2021/12/30 00:33:12;;;;;;;48.08;10.93;;;;;;;8.05;100.00;100918.09;1029570;28;20349;-78
2021/12/30 00:33:49;;;;;;;43.83;11.10;;;;;;;8.05;100.00;100919.94;1035889;28;20316;-79
2021/12/30 00:34:20;;;;;;;53.97;11.43;;;;;;;7.98;100.00;100921.75;1040309;28;20644;-78
2021/12/30 00:34:52;;;;;;;45.67;11.13;;;;;;;7.94;100.00;100917.84;1040735;28;20276;-79
2021/12/30 00:35:23;;;;;;;48.30;11.32;;;;;;;7.95;100.00;100927.47;1040285;28;20292;-78
2021/12/30 00:35:55;;;;;;;42.58;11.00;;;;;;;7.95;100.00;100927.47;1038990;28;20751;-78
2021/12/30 00:36:26;;;;;;;46.45;10.80;;;;;;;7.93;100.00;100927.63;1037800;28;20276;-78
2021/12/30 00:36:58;;;;;;;56.13;11.00;;;;;;;7.91;100.00;100934.97;1034882;28;20633;-78
2021/12/30 00:37:29;;;;;;;53.15;12.48;;;;;;;7.94;100.00;100936.41;1040019;28;20291;-78
2021/12/30 00:38:03;;;;;;;56.95;10.90;;;;;;;7.93;100.00;100940.06;1038173;28;20628;-78
2021/12/30 00:38:36;;;;;;;52.03;11.05;;;;;;;7.93;100.00;100934.75;1035868;28;20280;-78
2021/12/30 00:39:08;;;;;;;47.63;11.63;;;;;;;7.95;100.00;100938.06;1037063;28;20281;-75
2021/12/30 00:39:40;;;;;;;61.53;10.65;;;;;;;7.91;100.00;100937.63;1036426;28;20311;-75
2021/12/30 00:40:11;;;;;;;50.35;11.23;;;;;;;7.86;100.00;100934.75;1031681;28;20283;-75
2021/12/30 00:40:43;;;;;;;52.95;11.60;;;;;;;7.86;100.00;100940.03;1022877;28;20283;-75
2021/12/30 00:41:15;;;;;;;48.78;10.52;;;;;;;7.85;100.00;100937.59;1024015;28;20290;-75
2021/12/30 00:41:46;;;;;;;55.70;11.93;;;;;;;7.87;100.00;100935.56;1028172;28;20290;-79
2021/12/30 00:42:18;;;;;;;67.65;11.30;;;;;;;7.89;100.00;100931.69;1030841;28;20273;-78
2021/12/30 00:42:49;;;;;;;61.28;12.05;;;;;;;7.91;100.00;100928.84;1031956;28;20302;-78
2021/12/30 00:43:21;;;;;;;46.28;11.05;;;;;;;7.85;100.00;100929.63;1031491;28;20278;-78
2021/12/30 00:43:52;;;;;;;59.60;12.18;;;;;;;7.86;100.00;100929.44;1035474;28;20289;-78
2021/12/30 00:44:24;;;;;;;56.35;12.23;;;;;;;7.92;100.00;100930.47;1032358;28;20649;-78
2021/12/30 00:44:55;;;;;;;53.60;11.93;;;;;;;7.91;100.00;100936.78;1036685;28;20308;-78
2021/12/30 00:45:28;;;;;;;52.70;12.48;;;;;;;7.94;100.00;100931.09;1038751;28;20660;-78
2021/12/30 00:46:00;;;;;;;45.17;11.43;;;;;;;7.97;100.00;100936.03;1036675;28;20777;-78
2021/12/30 00:46:32;;;;;;;50.10;11.27;;;;;;;7.94;100.00;100941.72;1035961;28;20845;-78
2021/12/30 00:47:04;;;;;;;53.03;13.73;;;;;;;7.98;100.00;100942.97;1038517;28;20346;-79
2021/12/30 00:47:35;;;;;;;55.97;11.30;;;;;;;7.97;100.00;100938.69;1031784;28;20282;-78
2021/12/30 00:48:07;;;;;;;65.20;12.02;;;;;;;7.95;100.00;100938.06;1032600;28;20269;-78
2021/12/30 00:48:39;;;;;;;46.30;11.75;;;;;;;7.99;100.00;100944.63;1032650;28;20769;-78
2021/12/30 00:49:13;;;;;;;60.28;12.48;;;;;;;7.94;100.00;100941.72;1036536;28;20331;-78
2021/12/30 00:49:45;;;;;;;50.33;11.25;;;;;;;7.94;100.00;100937.25;1038008;28;20690;-78
2021/12/30 00:50:16;;;;;;;46.15;12.85;;;;;;;7.90;100.00;100945.78;1039516;28;20276;-78
2021/12/30 00:50:48;;;;;;;57.35;11.80;;;;;;;7.87;100.00;100946.97;1040266;28;20283;-78
2021/12/30 00:51:20;;;;;;;53.03;11.90;;;;;;;7.89;100.00;100950.25;1040239;28;20790;-78
2021/12/30 00:51:52;;;;;;;63.05;12.25;;;;;;;7.95;100.00;100944.19;1037287;28;20782;-79
2021/12/30 00:52:25;;;;;;;59.33;13.38;;;;;;;7.90;100.00;100951.06;1032709;28;20331;-78
2021/12/30 00:52:58;;;;;;;46.33;11.63;;;;;;;7.87;100.00;100954.13;1027774;28;20282;-79
2021/12/30 00:53:30;;;;;;;48.40;11.10;;;;;;;7.75;100.00;100957.34;1028833;28;20285;-78
2021/12/30 00:54:01;;;;;;;49.10;10.55;;;;;;;7.71;100.00;100952.63;1027452;28;20288;-79
2021/12/30 00:54:33;;;;;;;45.40;11.02;;;;;;;7.84;100.00;100957.16;1026888;28;20643;-78
2021/12/30 00:55:05;;;;;;;51.40;11.18;;;;;;;7.94;100.00;100953.16;1035155;28;20285;-77
2021/12/30 00:55:38;;;;;;;56.58;11.60;;;;;;;7.96;100.00;100960.94;1038522;28;20280;-78
2021/12/30 00:56:10;;;;;;;54.47;12.60;;;;;;;7.90;100.00;100956.38;1038622;28;20287;-79
2021/12/30 00:56:42;;;;;;;57.95;10.50;;;;;;;7.93;100.00;100966.59;1038025;28;20283;-78
2021/12/30 00:57:13;;;;;;;59.97;13.93;;;;;;;8.05;100.00;100949.13;1036376;28;20277;-78
2021/12/30 00:57:45;;;;;;;60.00;14.05;;;;;;;8.10;100.00;100954.66;1040003;28;20287;-78
2021/12/30 00:58:17;;;;;;;62.83;14.38;;;;;;;8.08;100.00;100951.38;1040152;28;20276;-78
2021/12/30 00:58:48;;;;;;;57.10;14.57;;;;;;;8.07;100.00;100957.69;1038853;28;20302;-78
2021/12/30 00:59:20;;;;;;;60.75;13.30;;;;;;;8.09;100.00;100946.91;1035938;28;20652;-78
2021/12/30 00:59:52;;;;;;;62.55;15.77;;;;;;;8.11;100.00;100948.34;1031904;28;20372;-78
2021/12/30 01:00:23;;;;;;;53.25;15.05;;;;;;;8.11;100.00;100945.69;1031135;28;20301;-78
2021/12/30 01:00:55;;;;;;;63.67;16.27;;;;;;;8.12;100.00;100955.28;1031760;28;20800;-78
2021/12/30 01:01:27;;;;;;;68.18;17.38;;;;;;;8.16;100.00;100948.56;1028790;28;20375;-78
2021/12/30 01:01:59;;;;;;;64.13;17.17;;;;;;;8.18;100.00;100943.88;1033350;28;20286;-78
2021/12/30 01:02:31;;;;;;;69.63;18.88;;;;;;;8.23;100.00;100952.06;1035610;28;20790;-78
2021/12/30 01:03:03;;;;;;;57.65;18.70;;;;;;;8.26;100.00;100956.16;1030653;28;20286;-78
2021/12/30 01:03:35;;;;;;;71.30;18.02;;;;;;;8.26;100.00;100950.84;1034332;28;20356;-78
2021/12/30 01:04:06;;;;;;;63.30;19.45;;;;;;;8.24;100.00;100955.53;1030413;28;20314;-78
2021/12/30 01:04:38;;;;;;;59.25;18.30;;;;;;;8.23;100.00;100945.94;1024714;28;20301;-78
2021/12/30 01:05:10;;;;;;;61.47;19.50;;;;;;;8.20;100.00;100947.13;1030142;28;20317;-78
2021/12/30 01:05:44;;;;;;;72.25;20.73;;;;;;;8.34;100.00;100948.88;1031146;28;20285;-77
2021/12/30 01:06:15;;;;;;;74.63;22.45;;;;;;;8.42;100.00;100949.69;1032821;28;20294;-77
2021/12/30 01:06:47;;;;;;;66.68;21.88;;;;;;;8.41;100.00;100948.06;1026914;28;20663;-78
2021/12/30 01:07:21;;;;;;;68.15;21.58;;;;;;;8.36;100.00;100952.16;1028227;28;20278;-78
2021/12/30 01:07:52;;;;;;;75.40;21.15;;;;;;;8.35;100.00;100947.84;1030431;28;20313;-78
2021/12/30 01:08:24;;;;;;;67.63;21.48;;;;;;;8.42;100.00;100955.00;1030137;28;20277;-78
2021/12/30 01:08:57;;;;;;;69.90;22.95;;;;;;;8.46;100.00;100956.25;1034591;28;20321;-78
2021/12/30 01:09:31;;;;;;;81.10;24.92;;;;;;;8.46;100.00;100948.28;1031026;28;20292;-78
2021/12/30 01:10:04;;;;;;;79.28;27.05;;;;;;;8.46;100.00;100959.72;1032876;28;20277;-78
2021/12/30 01:10:37;;;;;;;79.22;24.85;;;;;;;8.46;100.00;100957.06;1025586;28;20278;-78
2021/12/30 01:11:10;;;;;;;71.57;25.05;;;;;;;8.46;100.00;100967.69;1026968;28;20282;-78
2021/12/30 01:11:42;;;;;;;77.70;26.10;;;;;;;8.48;100.00;100970.97;1027639;28;20476;-78
2021/12/30 01:12:13;;;;;;;77.07;25.35;;;;;;;8.50;100.00;100981.41;1026082;28;20281;-79
2021/12/30 01:12:45;;;;;;;76.65;25.92;;;;;;;8.49;100.00;100977.94;1028035;28;20278;-79
2021/12/30 01:13:23;;;;;;;71.90;26.08;;;;;;;8.53;100.00;100983.66;1031936;28;20289;-78
2021/12/30 01:14:02;;;;;;;70.68;26.35;;;;;;;8.60;100.00;100981.84;1034789;28;20280;-79
2021/12/30 01:14:36;;;;;;;65.85;26.38;;;;;;;8.66;100.00;100983.69;1032272;28;20281;-78
2021/12/30 01:15:10;;;;;;;77.18;25.30;;;;;;;8.68;100.00;100981.66;1036319;28;20624;-78
2021/12/30 01:15:49;;;;;;;76.53;28.70;;;;;;;8.72;100.00;100984.72;1030003;28;20281;-79
2021/12/30 01:16:23;;;;;;;78.85;28.17;;;;;;;8.73;100.00;100987.16;1028051;28;20876;-78
2021/12/30 01:16:58;;;;;;;83.07;27.40;;;;;;;8.79;100.00;100989.03;1023858;28;20804;-79
2021/12/30 01:17:44;;;;;;;91.35;28.85;;;;;;;8.81;100.00;100975.56;1028418;28;20336;-78
2021/12/30 01:18:29;;;;;;;67.40;24.98;;;;;;;8.83;100.00;100977.00;1029891;28;20278;-78
2021/12/30 01:19:14;;;;;;;80.07;28.38;;;;;;;8.80;100.00;100980.06;1030632;28;20286;-78
2021/12/30 01:19:46;;;;;;;74.45;26.30;;;;;;;8.82;100.00;100972.72;1027886;28;20639;-78
2021/12/30 01:20:19;;;;;;;79.03;24.88;;;;;;;8.89;100.00;100978.84;1028030;28;20282;-79
2021/12/30 01:20:51;;;;;;;77.43;28.92;;;;;;;8.86;100.00;100976.59;1027405;28;20282;-78
2021/12/30 01:21:25;;;;;;;66.65;26.40;;;;;;;8.84;100.00;100965.34;1027082;28;20278;-78
2021/12/30 01:21:56;;;;;;;85.07;26.85;;;;;;;8.86;100.00;100968.63;1028858;28;20289;-78
2021/12/30 01:22:28;;;;;;;76.03;26.70;;;;;;;8.93;100.00;100968.63;1032144;28;20289;-78
2021/12/30 01:22:59;;;;;;;72.68;27.65;;;;;;;8.91;100.00;100960.88;1028595;28;20306;-78
2021/12/30 01:23:31;;;;;;;71.00;26.08;;;;;;;8.90;100.00;100975.16;1033771;28;20280;-79
2021/12/30 01:24:03;;;;;;;103.65;28.33;;;;;;;8.91;100.00;100971.50;1026930;28;20670;-78
2021/12/30 01:24:34;;;;;;;92.18;29.65;;;;;;;8.89;100.00;100978.03;1028238;28;20278;-78
2021/12/30 01:25:07;;;;;;;83.53;31.58;;;;;;;8.92;100.00;100974.97;1022142;29;20283;-78
2021/12/30 01:25:39;;;;;;;83.18;28.17;;;;;;;8.96;100.00;100976.19;1020072;29;20314;-78
2021/12/30 01:26:10;;;;;;;93.53;29.77;;;;;;;9.03;100.00;100978.84;1024011;29;20636;-78
2021/12/30 01:26:42;;;;;;;75.70;28.65;;;;;;;9.01;100.00;100986.22;1028652;28;20282;-78
2021/12/30 01:27:14;;;;;;;81.30;28.08;;;;;;;8.98;100.00;100976.81;1035415;28;20281;-78
2021/12/30 01:27:46;;;;;;;86.25;28.80;;;;;;;8.95;100.00;100983.34;1035871;28;20295;-78
2021/12/30 01:28:18;;;;;;;79.35;29.25;;;;;;;8.95;100.00;100980.69;1036227;28;20292;-78
2021/12/30 01:28:50;;;;;;;79.75;30.83;;;;;;;8.98;100.00;100982.94;1035023;28;21035;-75
2021/12/30 01:29:21;;;;;;;80.22;26.95;;;;;;;9.03;100.00;100977.00;1032091;28;20286;-74
2021/12/30 01:29:53;;;;;;;78.97;31.55;;;;;;;9.04;100.00;100975.16;1029805;28;20286;-74
2021/12/30 01:30:25;;;;;;;86.55;31.25;;;;;;;9.08;100.00;100979.09;1031779;28;20339;-74
2021/12/30 01:30:58;;;;;;;73.00;30.70;;;;;;;9.08;100.00;100976.44;1036174;28;20285;-75
2021/12/30 01:31:30;;;;;;;87.38;31.58;;;;;;;9.05;100.00;100980.31;1039818;28;20268;-75
2021/12/30 01:32:22;;;;;;;73.45;26.90;;;;;;;8.99;100.00;100983.75;1039025;28;20280;-75
2021/12/30 01:32:54;;;;;;;74.35;28.45;;;;;;;8.99;100.00;100979.25;1035170;28;20292;-75
2021/12/30 01:33:26;;;;;;;81.90;27.13;;;;;;;8.98;100.00;100988.25;1035688;28;20824;-75
2021/12/30 01:33:58;;;;;;;86.88;28.50;;;;;;;9.02;100.00;100977.22;1035031;28;20291;-75
2021/12/30 01:34:31;;;;;;;73.72;28.05;;;;;;;9.00;100.00;100980.06;1035943;28;20315;-75
2021/12/30 01:35:08;;;;;;;89.13;30.70;;;;;;;9.05;100.00;100987.47;1034896;28;20415;-75
2021/12/30 01:35:40;;;;;;;73.78;29.73;;;;;;;9.09;100.00;100999.31;1028065;28;20278;-75
2021/12/30 01:36:12;;;;;;;79.47;28.05;;;;;;;9.08;100.00;100992.38;1030245;28;20285;-75
2021/12/30 01:36:43;;;;;;;83.47;31.98;;;;;;;9.06;100.00;100994.41;1031017;28;20836;-79
2021/12/30 01:37:19;;;;;;;87.22;30.33;;;;;;;9.08;100.00;100989.72;1029923;28;20289;-78
2021/12/30 01:37:51;;;;;;;76.35;28.48;;;;;;;9.10;100.00;100991.16;1024056;28;20655;-78
2021/12/30 01:38:23;;;;;;;81.35;30.48;;;;;;;9.12;100.00;100991.75;1031729;28;20292;-78
2021/12/30 01:38:55;;;;;;;92.75;31.13;;;;;;;9.11;100.00;100991.97;1031804;28;20815;-78
2021/12/30 01:39:27;;;;;;;78.05;29.88;;;;;;;9.08;100.00;100992.38;1024921;28;20275;-79
2021/12/30 01:39:58;;;;;;;77.72;31.13;;;;;;;9.07;100.00;100996.06;1030900;28;20289;-78
2021/12/30 01:40:30;;;;;;;74.78;31.85;;;;;;;9.12;100.00;100993.59;1027362;28;20833;-79
2021/12/30 01:41:03;;;;;;;85.45;34.08;;;;;;;9.12;100.00;100999.72;1020659;29;20279;-78
2021/12/30 01:41:35;;;;;;;83.35;30.05;;;;;;;9.05;100.00;100985.63;1026863;28;20784;-78
2021/12/30 01:42:07;;;;;;;90.80;32.40;;;;;;;9.06;100.00;100992.56;1025758;28;20290;-78
2021/12/30 01:42:39;;;;;;;80.38;32.17;;;;;;;9.09;100.00;100994.00;1026059;28;20666;-79
2021/12/30 01:43:13;;;;;;;80.75;33.17;;;;;;;9.14;100.00;100996.88;1027871;28;20635;-79
2021/12/30 01:43:45;;;;;;;92.95;33.55;;;;;;;9.12;100.00;100989.09;1027408;28;20281;-78
2021/12/30 01:44:17;;;;;;;84.63;35.58;;;;;;;9.13;100.00;100993.41;1028429;28;20278;-78
2021/12/30 01:44:48;;;;;;;89.93;34.55;;;;;;;9.14;100.00;100996.88;1027618;28;20278;-78
2021/12/30 01:45:20;;;;;;;89.57;34.08;;;;;;;9.15;100.00;100998.50;1023879;28;20283;-78
2021/12/30 01:45:52;;;;;;;75.85;33.42;;;;;;;9.13;100.00;101000.56;1024229;28;20569;-78
2021/12/30 01:46:23;;;;;;;78.85;33.22;;;;;;;9.11;100.00;101002.59;1026279;28;20354;-79
2021/12/30 01:46:56;;;;;;;81.22;34.15;;;;;;;9.09;100.00;101002.78;1024818;28;20294;-79
2021/12/30 01:47:27;;;;;;;83.93;34.55;;;;;;;9.13;100.00;101011.19;1023809;28;20298;-78
2021/12/30 01:47:59;;;;;;;82.60;36.28;;;;;;;9.16;100.00;101016.09;1028270;28;20278;-78
2021/12/30 01:48:30;;;;;;;82.90;33.67;;;;;;;9.16;100.00;101005.47;1031986;28;20282;-78
2021/12/30 01:49:02;;;;;;;84.90;35.15;;;;;;;9.16;100.00;101000.16;1033144;28;20288;-78
2021/12/30 01:49:34;;;;;;;89.18;33.63;;;;;;;9.18;100.00;101003.41;1033717;28;20276;-78
2021/12/30 01:50:06;;;;;;;81.95;35.17;;;;;;;9.18;100.00;101003.41;1028536;28;20293;-78
2021/12/30 01:50:38;;;;;;;83.30;32.63;;;;;;;9.20;100.00;101002.19;1031352;28;20807;-78
2021/12/30 01:51:10;;;;;;;82.78;33.42;;;;;;;9.17;100.00;100997.28;1024357;28;20344;-78
2021/12/30 01:51:43;;;;;;;83.43;34.72;;;;;;;9.15;100.00;101004.63;1023306;29;20325;-78
2021/12/30 01:52:14;;;;;;;85.47;34.58;;;;;;;9.26;100.00;101003.22;1026323;28;20317;-78
2021/12/30 01:52:46;;;;;;;77.20;33.17;;;;;;;9.26;100.00;101005.88;1029915;28;20286;-78
2021/12/30 01:53:17;;;;;;;93.82;35.30;;;;;;;9.25;100.00;101001.56;1027266;28;20282;-78
2021/12/30 01:53:49;;;;;;;78.40;34.25;;;;;;;9.22;100.00;101004.63;1029376;28;20670;-78
2021/12/30 01:54:22;;;;;;;82.70;34.30;;;;;;;9.19;100.00;101005.06;1035223;28;20287;-78
2021/12/30 01:54:53;;;;;;;90.60;35.30;;;;;;;9.20;100.00;101009.34;1031676;28;20289;-75
2021/12/30 01:55:25;;;;;;;87.57;34.75;;;;;;;9.23;100.00;101006.28;1031798;28;20285;-75
2021/12/30 01:55:57;;;;;;;83.00;33.05;;;;;;;9.18;100.00;101016.69;1031364;28;20285;-75
2021/12/30 01:56:28;;;;;;;82.15;35.50;;;;;;;9.19;100.00;101007.72;1026987;28;20274;-75
2021/12/30 01:57:04;;;;;;;78.18;31.65;;;;;;;9.18;100.00;101014.03;1030613;28;20307;-75
2021/12/30 01:57:35;;;;;;;78.00;33.10;;;;;;;9.19;100.00;101011.19;1024996;28;20297;-75
2021/12/30 01:58:08;;;;;;;86.90;33.85;;;;;;;9.20;100.00;101017.31;1026720;28;20274;-75
2021/12/30 01:58:39;;;;;;;80.10;32.25;;;;;;;9.23;100.00;101011.59;1026907;28;20278;-74
2021/12/30 01:59:11;;;;;;;90.72;34.45;;;;;;;9.25;100.00;101006.88;1027178;28;20290;-75
2021/12/30 01:59:48;;;;;;;82.18;31.70;;;;;;;9.24;100.00;101010.56;1031097;28;20313;-75
2021/12/30 02:00:23;;;;;;;89.50;34.55;;;;;;;9.23;100.00;101008.94;1028394;28;20288;-75
2021/12/30 02:00:56;;;;;;;81.97;34.10;;;;;;;9.21;100.00;101003.81;1028004;28;20275;-75
2021/12/30 02:01:28;;;;;;;91.75;34.88;;;;;;;9.28;100.00;101004.63;1035048;28;20285;-75
2021/12/30 02:02:01;;;;;;;93.53;34.58;;;;;;;9.28;100.00;101004.63;1031127;28;20273;-75
2021/12/30 02:02:38;;;;;;;86.93;35.55;;;;;;;9.23;100.00;100999.13;1026530;28;20293;-75
2021/12/30 02:03:10;;;;;;;94.43;33.60;;;;;;;9.26;100.00;101000.56;1021047;29;20279;-75
2021/12/30 02:03:42;;;;;;;68.93;31.70;;;;;;;9.29;100.00;101008.13;1024398;28;20825;-75
2021/12/30 02:04:14;;;;;;;75.50;32.67;;;;;;;9.27;100.00;101000.34;1028838;28;20373;-75
2021/12/30 02:04:46;;;;;;;74.13;34.17;;;;;;;9.34;100.00;100996.91;1034420;28;20294;-75
2021/12/30 02:05:18;;;;;;;85.55;33.70;;;;;;;9.30;100.00;101001.78;1027516;28;20293;-75
2021/12/30 02:05:50;;;;;;;73.53;34.05;;;;;;;9.33;100.00;101003.22;1031297;28;20293;-75
2021/12/30 02:06:22;;;;;;;85.43;33.70;;;;;;;9.34;100.00;101002.22;1027136;28;20278;-75
2021/12/30 02:06:54;;;;;;;81.50;33.10;;;;;;;9.34;100.00;101007.53;1027673;28;20333;-75
2021/12/30 02:07:26;;;;;;;75.60;31.55;;;;;;;9.32;100.00;100999.75;1029901;28;20286;-75
2021/12/30 02:07:57;;;;;;;89.35;33.03;;;;;;;9.31;100.00;101003.41;1032037;28;20622;-75
2021/12/30 02:08:29;;;;;;;68.15;31.40;;;;;;;9.35;100.00;100999.34;1035036;28;20288;-75
2021/12/30 02:09:00;;;;;;;86.60;32.80;;;;;;;9.39;100.00;101000.56;1031283;28;20302;-75
2021/12/30 02:09:32;;;;;;;96.32;31.95;;;;;;;9.37;100.00;101002.63;1031870;28;20332;-75
2021/12/30 02:10:05;;;;;;;71.93;32.47;;;;;;;9.36;100.00;101008.97;1029925;28;20364;-75
2021/12/30 02:10:36;;;;;;;79.75;32.85;;;;;;;9.35;100.00;101011.81;1027624;28;20285;-75
2021/12/30 02:11:08;;;;;;;83.18;33.63;;;;;;;9.33;100.00;101017.34;1029225;28;20278;-75
2021/12/30 02:11:40;;;;;;;82.68;34.95;;;;;;;9.31;100.00;101019.34;1025281;28;20290;-75
2021/12/30 02:12:11;;;;;;;78.47;32.42;;;;;;;9.31;100.00;101024.69;1026702;28;20290;-74
2021/12/30 02:12:43;;;;;;;84.15;32.75;;;;;;;9.33;100.00;101021.84;1027963;28;20289;-75
2021/12/30 02:13:17;;;;;;;80.05;31.23;;;;;;;9.33;100.00;101016.53;1031439;28;20285;-75
2021/12/30 02:13:50;;;;;;;86.28;32.45;;;;;;;9.33;100.00;101030.63;1032892;28;20304;-76
2021/12/30 02:14:21;;;;;;;91.45;33.05;;;;;;;9.33;100.00;101027.97;1031287;28;20300;-75
2021/12/30 02:14:53;;;;;;;81.45;32.80;;;;;;;9.34;100.00;101029.63;1027869;28;20293;-75
2021/12/30 02:15:24;;;;;;;78.68;32.00;;;;;;;9.35;100.00;101030.44;1030973;28;20277;-75
2021/12/30 02:16:02;;;;;;;81.53;31.80;;;;;;;9.37;100.00;101031.84;1031791;28;20424;-75
2021/12/30 02:16:33;;;;;;;75.15;31.30;;;;;;;9.40;100.00;101039.44;1027606;28;20274;-75
2021/12/30 02:17:06;;;;;;;84.30;32.42;;;;;;;9.35;100.00;101033.09;1031006;28;20282;-75
2021/12/30 02:17:38;;;;;;;80.30;31.85;;;;;;;9.37;100.00;101034.53;1029577;28;20363;-74
2021/12/30 02:18:09;;;;;;;75.43;31.42;;;;;;;9.32;100.00;101041.47;1029408;28;20282;-75
2021/12/30 02:18:41;;;;;;;76.72;30.35;;;;;;;9.40;100.00;101034.09;1026952;28;20309;-75
2021/12/30 02:19:12;;;;;;;91.97;34.08;;;;;;;9.42;100.00;101042.69;1027376;28;20564;-75
2021/12/30 02:19:44;;;;;;;80.05;31.65;;;;;;;9.45;100.00;101031.66;1027794;28;20539;-74
2021/12/30 02:20:46;;;;;;;76.55;31.58;;;;;;;9.43;100.00;101035.53;1027465;28;20278;-75
2021/12/30 02:21:17;;;;;;;75.28;27.17;;;;;;;9.40;100.00;101039.44;1031585;28;20286;-78
2021/12/30 02:21:49;;;;;;;83.63;27.50;;;;;;;9.41;100.00;101029.59;1031619;28;20649;-78
2021/12/30 02:22:20;;;;;;;79.28;29.70;;;;;;;9.41;100.00;101041.06;1038004;28;20292;-78
2021/12/30 02:22:52;;;;;;;84.88;26.85;;;;;;;9.40;100.00;101036.78;1037453;28;20315;-78
2021/12/30 02:23:28;;;;;;;79.45;27.52;;;;;;;9.42;100.00;101040.03;1031588;28;20273;-78
2021/12/30 02:24:00;;;;;;;88.20;31.55;;;;;;;9.45;100.00;101041.47;1027629;28;20444;-79
2021/12/30 02:24:31;;;;;;;77.78;29.38;;;;;;;9.47;100.00;101040.25;1029876;28;20966;-78
2021/12/30 02:25:04;;;;;;;80.72;28.48;;;;;;;9.49;100.00;101043.50;1034187;28;20280;-78
2021/12/30 02:25:38;;;;;;;87.80;28.58;;;;;;;9.48;100.00;101039.22;1034139;28;20704;-78
2021/12/30 02:26:15;;;;;;;80.68;27.42;;;;;;;9.48;100.00;101039.22;1032625;28;20288;-78
2021/12/30 02:26:47;;;;;;;79.95;28.30;;;;;;;9.51;100.00;101041.47;1034462;28;20293;-78
2021/12/30 02:27:19;;;;;;;77.35;28.33;;;;;;;9.47;100.00;101040.25;1026844;28;20711;-78
2021/12/30 02:27:50;;;;;;;76.57;26.88;;;;;;;9.46;100.00;101043.91;1030277;28;20324;-78
2021/12/30 02:28:25;;;;;;;84.38;29.23;;;;;;;9.53;100.00;101039.41;1033985;28;21010;-78